sensor_id;sensor_type;location;lat;lon;timestamp;pressure;altitude;pressure_sealevel;temperature;humidity
37610;BME280;23457;51.966;8.230;2023-12-20T00:01:02;100610.69;;;7.63;100.00
37610;BME280;23457;51.966;8.230;2023-12-20T00:03:29;100620.06;;;7.58;100.00
37610;BME280;23457;51.966;8.230;2023-12-20T00:06:07;100630.75;;;7.40;100.00
37610;BME280;23457;51.966;8.230;2023-12-20T00:08:34;100619.22;;;7.60;100.00
37610;BME280;23457;51.966;8.230;2023-12-20T00:11:01;100621.72;;;7.55;100.00
37610;BME280;23457;51.966;8.230;2023-12-20T00:13:28;100638.38;;;7.34;100.00
37610;BME280;23457;51.966;8.230;2023-12-20T00:15:55;100652.19;;;7.34;100.00
37610;BME280;23457;51.966;8.230;2023-12-20T00:18:22;100644.91;;;7.21;100.00
37610;BME280;23457;51.966;8.230;2023-12-20T00:20:48;100641.56;;;7.25;100.00
37610;BME280;23457;51.966;8.230;2023-12-20T00:23:15;100647.69;;;7.29;100.00
37610;BME280;23457;51.966;8.230;2023-12-20T00:25:42;100649.09;;;7.17;100.00
37610;BME280;23457;51.966;8.230;2023-12-20T00:28:08;100649.97;;;7.18;100.00
37610;BME280;23457;51.966;8.230;2023-12-20T00:30:35;100650.56;;;7.09;100.00
37610;BME280;23457;51.966;8.230;2023-12-20T00:33:03;100658.72;;;7.23;100.00
37610;BME280;23457;51.966;8.230;2023-12-20T00:35:30;100662.81;;;7.15;100.00
37610;BME280;23457;51.966;8.230;2023-12-20T00:37:58;100648.38;;;7.23;100.00
37610;BME280;23457;51.966;8.230;2023-12-20T00:40:25;100644.22;;;7.28;100.00
37610;BME280;23457;51.966;8.230;2023-12-20T00:42:52;100639.50;;;7.13;100.00
37610;BME280;23457;51.966;8.230;2023-12-20T00:45:19;100641.97;;;7.09;100.00
37610;BME280;23457;51.966;8.230;2023-12-20T00:47:45;100641.47;;;7.22;100.00
37610;BME280;23457;51.966;8.230;2023-12-20T00:50:12;100643.88;;;7.16;100.00
37610;BME280;23457;51.966;8.230;2023-12-20T00:52:40;100641.22;;;7.13;100.00
37610;BME280;23457;51.966;8.230;2023-12-20T00:55:06;100640.53;;;7.18;100.00
37610;BME280;23457;51.966;8.230;2023-12-20T00:57:38;100641.06;;;7.07;100.00
37610;BME280;23457;51.966;8.230;2023-12-20T01:00:05;100639.75;;;7.21;100.00
37610;BME280;23457;51.966;8.230;2023-12-20T01:02:32;100649.44;;;7.00;100.00
37610;BME280;23457;51.966;8.230;2023-12-20T01:04:59;100655.53;;;7.02;100.00
37610;BME280;23457;51.966;8.230;2023-12-20T01:07:25;100656.66;;;6.81;100.00
37610;BME280;23457;51.966;8.230;2023-12-20T01:09:52;100659.59;;;6.94;100.00
37610;BME280;23457;51.966;8.230;2023-12-20T01:12:19;100659.41;;;6.88;100.00
37610;BME280;23457;51.966;8.230;2023-12-20T01:14:46;100651.41;;;6.78;100.00
37610;BME280;23457;51.966;8.230;2023-12-20T01:17:13;100655.13;;;6.88;100.00
37610;BME280;23457;51.966;8.230;2023-12-20T01:19:40;100662.81;;;6.87;100.00
37610;BME280;23457;51.966;8.230;2023-12-20T01:22:07;100664.00;;;6.98;100.00
37610;BME280;23457;51.966;8.230;2023-12-20T01:24:33;100659.38;;;6.86;100.00
37610;BME280;23457;51.966;8.230;2023-12-20T01:27:00;100663.38;;;6.76;100.00
37610;BME280;23457;51.966;8.230;2023-12-20T01:29:27;100660.50;;;6.94;100.00
37610;BME280;23457;51.966;8.230;2023-12-20T01:31:53;100667.47;;;6.98;100.00
37610;BME280;23457;51.966;8.230;2023-12-20T01:34:20;100670.69;;;6.90;100.00
37610;BME280;23457;51.966;8.230;2023-12-20T01:36:47;100673.53;;;6.99;100.00
37610;BME280;23457;51.966;8.230;2023-12-20T01:39:14;100664.41;;;6.81;100.00
37610;BME280;23457;51.966;8.230;2023-12-20T01:41:53;100679.97;;;6.83;100.00
37610;BME280;23457;51.966;8.230;2023-12-20T01:44:20;100681.47;;;6.76;100.00
37610;BME280;23457;51.966;8.230;2023-12-20T01:46:47;100680.22;;;6.92;100.00
37610;BME280;23457;51.966;8.230;2023-12-20T01:49:14;100675.69;;;6.83;100.00
37610;BME280;23457;51.966;8.230;2023-12-20T01:51:42;100664.94;;;6.71;100.00
37610;BME280;23457;51.966;8.230;2023-12-20T01:54:09;100668.00;;;6.87;100.00
37610;BME280;23457;51.966;8.230;2023-12-20T01:56:37;100670.47;;;6.82;100.00
37610;BME280;23457;51.966;8.230;2023-12-20T01:59:04;100675.19;;;6.97;100.00
37610;BME280;23457;51.966;8.230;2023-12-20T02:01:31;100668.50;;;7.03;100.00
37610;BME280;23457;51.966;8.230;2023-12-20T02:03:59;100666.16;;;6.82;100.00
37610;BME280;23457;51.966;8.230;2023-12-20T02:06:29;100663.28;;;6.73;100.00
37610;BME280;23457;51.966;8.230;2023-12-20T02:08:58;100658.50;;;6.57;100.00
37610;BME280;23457;51.966;8.230;2023-12-20T02:11:25;100648.44;;;6.66;100.00
37610;BME280;23457;51.966;8.230;2023-12-20T02:13:53;100642.31;;;6.63;100.00
37610;BME280;23457;51.966;8.230;2023-12-20T02:16:21;100640.66;;;6.38;100.00
37610;BME280;23457;51.966;8.230;2023-12-20T02:18:48;100640.38;;;6.56;100.00
37610;BME280;23457;51.966;8.230;2023-12-20T02:21:15;100647.59;;;6.39;100.00
37610;BME280;23457;51.966;8.230;2023-12-20T02:23:41;100647.19;;;6.54;100.00
37610;BME280;23457;51.966;8.230;2023-12-20T02:26:08;100643.56;;;6.48;100.00
37610;BME280;23457;51.966;8.230;2023-12-20T02:28:35;100653.13;;;6.24;100.00
37610;BME280;23457;51.966;8.230;2023-12-20T02:31:02;100654.13;;;6.28;100.00
37610;BME280;23457;51.966;8.230;2023-12-20T02:33:29;100650.88;;;6.35;100.00
37610;BME280;23457;51.966;8.230;2023-12-20T02:35:56;100644.81;;;6.33;100.00
37610;BME280;23457;51.966;8.230;2023-12-20T02:38:23;100643.00;;;6.30;100.00
37610;BME280;23457;51.966;8.230;2023-12-20T02:40:49;100636.03;;;6.28;100.00
37610;BME280;23457;51.966;8.230;2023-12-20T02:43:16;100638.91;;;6.37;100.00
37610;BME280;23457;51.966;8.230;2023-12-20T02:45:43;100641.03;;;6.50;100.00
37610;BME280;23457;51.966;8.230;2023-12-20T02:48:10;100653.28;;;6.29;100.00
37610;BME280;23457;51.966;8.230;2023-12-20T02:50:36;100643.50;;;6.19;100.00
37610;BME280;23457;51.966;8.230;2023-12-20T02:53:03;100643.69;;;6.25;100.00
37610;BME280;23457;51.966;8.230;2023-12-20T02:55:30;100637.47;;;6.18;100.00
37610;BME280;23457;51.966;8.230;2023-12-20T02:57:56;100637.88;;;6.05;100.00
37610;BME280;23457;51.966;8.230;2023-12-20T03:00:23;100643.81;;;6.02;100.00
37610;BME280;23457;51.966;8.230;2023-12-20T03:02:50;100651.19;;;6.17;100.00
37610;BME280;23457;51.966;8.230;2023-12-20T03:05:17;100639.66;;;6.06;100.00
37610;BME280;23457;51.966;8.230;2023-12-20T03:07:43;100640.72;;;6.13;100.00
37610;BME280;23457;51.966;8.230;2023-12-20T03:10:11;100635.66;;;6.16;100.00
37610;BME280;23457;51.966;8.230;2023-12-20T03:12:49;100641.53;;;6.11;100.00
37610;BME280;23457;51.966;8.230;2023-12-20T03:15:16;100639.13;;;6.16;100.00
37610;BME280;23457;51.966;8.230;2023-12-20T03:17:43;100637.25;;;6.12;100.00
37610;BME280;23457;51.966;8.230;2023-12-20T03:20:10;100641.34;;;6.05;100.00
37610;BME280;23457;51.966;8.230;2023-12-20T03:22:38;100637.88;;;6.05;100.00
37610;BME280;23457;51.966;8.230;2023-12-20T03:25:04;100633.47;;;6.28;100.00
37610;BME280;23457;51.966;8.230;2023-12-20T03:27:31;100637.47;;;6.18;100.00
37610;BME280;23457;51.966;8.230;2023-12-20T03:29:58;100645.31;;;5.96;100.00
37610;BME280;23457;51.966;8.230;2023-12-20T03:32:25;100639.66;;;6.33;100.00
37610;BME280;23457;51.966;8.230;2023-12-20T03:34:52;100638.13;;;6.13;100.00
37610;BME280;23457;51.966;8.230;2023-12-20T03:37:19;100637.78;;;6.02;100.00
37610;BME280;23457;51.966;8.230;2023-12-20T03:39:45;100631.09;;;6.08;100.00
37610;BME280;23457;51.966;8.230;2023-12-20T03:42:12;100629.81;;;5.94;100.00
37610;BME280;23457;51.966;8.230;2023-12-20T03:44:39;100620.72;;;6.05;100.00
37610;BME280;23457;51.966;8.230;2023-12-20T03:47:09;100619.50;;;5.96;100.00
37610;BME280;23457;51.966;8.230;2023-12-20T03:49:35;100617.97;;;6.01;100.00
37610;BME280;23457;51.966;8.230;2023-12-20T03:52:04;100624.00;;;6.01;100.00
37610;BME280;23457;51.966;8.230;2023-12-20T03:54:31;100616.03;;;5.95;100.00
37610;BME280;23457;51.966;8.230;2023-12-20T03:56:58;100609.84;;;6.16;100.00
37610;BME280;23457;51.966;8.230;2023-12-20T03:59:24;100616.88;;;6.20;100.00
37610;BME280;23457;51.966;8.230;2023-12-20T04:01:51;100612.88;;;6.02;100.00
37610;BME280;23457;51.966;8.230;2023-12-20T04:04:18;100613.25;;;6.15;100.00
37610;BME280;23457;51.966;8.230;2023-12-20T04:06:45;100601.13;;;6.12;100.00
37610;BME280;23457;51.966;8.230;2023-12-20T04:09:12;100611.38;;;6.10;100.00
37610;BME280;23457;51.966;8.230;2023-12-20T04:11:39;100606.97;;;6.06;100.00
37610;BME280;23457;51.966;8.230;2023-12-20T04:14:06;100603.91;;;5.91;100.00
37610;BME280;23457;51.966;8.230;2023-12-20T04:16:34;100600.31;;;6.13;100.00
37610;BME280;23457;51.966;8.230;2023-12-20T04:19:01;100605.69;;;6.21;100.00
37610;BME280;23457;51.966;8.230;2023-12-20T04:21:28;100605.94;;;6.01;100.00
37610;BME280;23457;51.966;8.230;2023-12-20T04:23:54;100605.06;;;6.28;100.00
37610;BME280;23457;51.966;8.230;2023-12-20T04:26:21;100598.09;;;5.98;100.00
37610;BME280;23457;51.966;8.230;2023-12-20T04:28:48;100601.00;;;6.07;100.00
37610;BME280;23457;51.966;8.230;2023-12-20T04:31:17;100604.03;;;6.23;100.00
37610;BME280;23457;51.966;8.230;2023-12-20T04:33:44;100598.69;;;6.17;100.00
37610;BME280;23457;51.966;8.230;2023-12-20T04:36:11;100607.22;;;6.14;100.00
37610;BME280;23457;51.966;8.230;2023-12-20T04:38:37;100611.00;;;5.98;100.00
37610;BME280;23457;51.966;8.230;2023-12-20T04:41:04;100613.56;;;5.98;100.00
37610;BME280;23457;51.966;8.230;2023-12-20T04:43:31;100612.53;;;6.19;100.00
37610;BME280;23457;51.966;8.230;2023-12-20T04:45:57;100621.72;;;6.10;100.00
37610;BME280;23457;51.966;8.230;2023-12-20T04:48:24;100618.38;;;6.13;100.00
37610;BME280;23457;51.966;8.230;2023-12-20T04:50:51;100621.28;;;6.24;100.00
37610;BME280;23457;51.966;8.230;2023-12-20T04:53:18;100616.50;;;6.09;100.00
37610;BME280;23457;51.966;8.230;2023-12-20T04:55:46;100612.03;;;6.03;100.00
37610;BME280;23457;51.966;8.230;2023-12-20T04:58:12;100610.56;;;6.11;100.00
37610;BME280;23457;51.966;8.230;2023-12-20T05:00:39;100604.75;;;6.17;100.00
37610;BME280;23457;51.966;8.230;2023-12-20T05:03:06;100606.34;;;6.14;100.00
37610;BME280;23457;51.966;8.230;2023-12-20T05:05:33;100607.16;;;6.13;100.00
37610;BME280;23457;51.966;8.230;2023-12-20T05:08:00;100595.84;;;6.09;100.00
37610;BME280;23457;51.966;8.230;2023-12-20T05:10:27;100602.38;;;5.98;100.00
37610;BME280;23457;51.966;8.230;2023-12-20T05:12:54;100593.72;;;6.23;100.00
37610;BME280;23457;51.966;8.230;2023-12-20T05:15:21;100593.00;;;6.27;100.00
37610;BME280;23457;51.966;8.230;2023-12-20T05:17:48;100588.28;;;6.14;100.00
37610;BME280;23457;51.966;8.230;2023-12-20T05:20:15;100598.81;;;6.20;100.00
37610;BME280;23457;51.966;8.230;2023-12-20T05:22:42;100594.22;;;6.11;100.00
37610;BME280;23457;51.966;8.230;2023-12-20T05:25:09;100588.56;;;5.96;100.00
37610;BME280;23457;51.966;8.230;2023-12-20T05:27:36;100593.28;;;6.09;100.00
37610;BME280;23457;51.966;8.230;2023-12-20T05:30:03;100595.84;;;6.09;100.00
37610;BME280;23457;51.966;8.230;2023-12-20T05:32:31;100598.88;;;5.96;100.00
37610;BME280;23457;51.966;8.230;2023-12-20T05:34:58;100599.69;;;6.20;100.00
37610;BME280;23457;51.966;8.230;2023-12-20T05:37:25;100591.13;;;6.23;100.00
37610;BME280;23457;51.966;8.230;2023-12-20T05:39:52;100587.69;;;6.22;100.00
37610;BME280;23457;51.966;8.230;2023-12-20T05:42:19;100594.09;;;6.08;100.00
37610;BME280;23457;51.966;8.230;2023-12-20T05:44:47;100599.69;;;6.22;100.00
37610;BME280;23457;51.966;8.230;2023-12-20T05:47:17;100604.69;;;6.16;100.00
37610;BME280;23457;51.966;8.230;2023-12-20T05:49:45;100604.34;;;6.32;100.00
37610;BME280;23457;51.966;8.230;2023-12-20T05:52:11;100599.41;;;6.13;100.00
37610;BME280;23457;51.966;8.230;2023-12-20T05:54:38;100598.69;;;6.17;100.00
37610;BME280;23457;51.966;8.230;2023-12-20T05:57:05;100606.56;;;6.21;100.00
37610;BME280;23457;51.966;8.230;2023-12-20T05:59:32;100605.63;;;6.18;100.00
37610;BME280;23457;51.966;8.230;2023-12-20T06:01:59;100618.66;;;6.22;100.00
37610;BME280;23457;51.966;8.230;2023-12-20T06:04:26;100608.31;;;6.22;100.00
37610;BME280;23457;51.966;8.230;2023-12-20T06:06:52;100608.63;;;6.04;100.00
37610;BME280;23457;51.966;8.230;2023-12-20T06:09:19;100610.38;;;6.05;100.00
37610;BME280;23457;51.966;8.230;2023-12-20T06:11:46;100609.97;;;6.19;100.00
37610;BME280;23457;51.966;8.230;2023-12-20T06:14:13;100607.09;;;6.11;100.00
37610;BME280;23457;51.966;8.230;2023-12-20T06:16:39;100606.38;;;6.15;100.00
37610;BME280;23457;51.966;8.230;2023-12-20T06:19:06;100597.34;;;6.28;100.00
37610;BME280;23457;51.966;8.230;2023-12-20T06:21:33;100594.75;;;6.28;100.00
37610;BME280;23457;51.966;8.230;2023-12-20T06:24:00;100597.56;;;6.08;100.00
37610;BME280;23457;51.966;8.230;2023-12-20T06:26:26;100579.03;;;6.20;100.00
37610;BME280;23457;51.966;8.230;2023-12-20T06:28:53;100587.44;;;6.15;100.00
37610;BME280;23457;51.966;8.230;2023-12-20T06:31:20;100590.25;;;6.22;100.00
37610;BME280;23457;51.966;8.230;2023-12-20T06:33:47;100598.66;;;6.15;100.00
37610;BME280;23457;51.966;8.230;2023-12-20T06:36:16;100594.38;;;6.16;100.00
37610;BME280;23457;51.966;8.230;2023-12-20T06:38:43;100588.91;;;6.06;100.00
37610;BME280;23457;51.966;8.230;2023-12-20T06:41:13;100602.22;;;6.19;100.00
37610;BME280;23457;51.966;8.230;2023-12-20T06:43:40;100599.69;;;6.20;100.00
37610;BME280;23457;51.966;8.230;2023-12-20T06:46:15;100600.34;;;6.15;100.00
37610;BME280;23457;51.966;8.230;2023-12-20T06:48:42;100595.56;;;6.27;100.00
37610;BME280;23457;51.966;8.230;2023-12-20T06:51:16;100592.06;;;6.25;100.00
37610;BME280;23457;51.966;8.230;2023-12-20T06:53:43;100589.75;;;6.32;100.00
37610;BME280;23457;51.966;8.230;2023-12-20T06:56:10;100589.53;;;6.26;100.00
37610;BME280;23457;51.966;8.230;2023-12-20T06:58:39;100586.81;;;6.22;100.00
37610;BME280;23457;51.966;8.230;2023-12-20T07:01:11;100585.91;;;6.20;100.00
37610;BME280;23457;51.966;8.230;2023-12-20T07:03:38;100584.66;;;6.35;100.00
37610;BME280;23457;51.966;8.230;2023-12-20T07:06:05;100590.69;;;6.36;100.00
37610;BME280;23457;51.966;8.230;2023-12-20T07:08:32;100589.63;;;6.29;100.00
37610;BME280;23457;51.966;8.230;2023-12-20T07:10:59;100588.47;;;6.20;100.00
37610;BME280;23457;51.966;8.230;2023-12-20T07:13:26;100579.38;;;6.31;100.00
37610;BME280;23457;51.966;8.230;2023-12-20T07:15:53;100590.31;;;6.24;100.00
37610;BME280;23457;51.966;8.230;2023-12-20T07:18:19;100583.59;;;6.29;100.00
37610;BME280;23457;51.966;8.230;2023-12-20T07:20:46;100583.78;;;6.35;100.00
37610;BME280;23457;51.966;8.230;2023-12-20T07:23:13;100578.53;;;6.32;100.00
37610;BME280;23457;51.966;8.230;2023-12-20T07:25:40;100583.81;;;6.36;100.00
37610;BME280;23457;51.966;8.230;2023-12-20T07:28:06;100577.97;;;6.42;100.00
37610;BME280;23457;51.966;8.230;2023-12-20T07:30:33;100563.06;;;6.32;100.00
37610;BME280;23457;51.966;8.230;2023-12-20T07:33:00;100578.72;;;6.38;100.00
37610;BME280;23457;51.966;8.230;2023-12-20T07:35:27;100578.28;;;6.24;100.00
37610;BME280;23457;51.966;8.230;2023-12-20T07:37:54;100576.97;;;6.37;100.00
37610;BME280;23457;51.966;8.230;2023-12-20T07:40:21;100576.28;;;6.42;100.00
37610;BME280;23457;51.966;8.230;2023-12-20T07:42:48;100582.66;;;6.27;100.00
37610;BME280;23457;51.966;8.230;2023-12-20T07:45:15;100585.41;;;6.31;100.00
37610;BME280;23457;51.966;8.230;2023-12-20T07:47:41;100584.38;;;6.26;100.00
37610;BME280;23457;51.966;8.230;2023-12-20T07:50:11;100590.06;;;6.43;100.00
37610;BME280;23457;51.966;8.230;2023-12-20T07:52:38;100594.97;;;6.35;100.00
37610;BME280;23457;51.966;8.230;2023-12-20T07:55:05;100585.25;;;6.27;100.00
37610;BME280;23457;51.966;8.230;2023-12-20T07:57:32;100591.00;;;6.45;100.00
37610;BME280;23457;51.966;8.230;2023-12-20T07:59:59;100590.53;;;6.30;100.00
37610;BME280;23457;51.966;8.230;2023-12-20T08:02:26;100592.72;;;6.46;100.00
37610;BME280;23457;51.966;8.230;2023-12-20T08:04:52;100584.19;;;6.48;100.00
37610;BME280;23457;51.966;8.230;2023-12-20T08:07:19;100581.25;;;6.36;100.00
37610;BME280;23457;51.966;8.230;2023-12-20T08:09:46;100579.84;;;6.47;100.00
37610;BME280;23457;51.966;8.230;2023-12-20T08:12:13;100584.66;;;6.35;100.00
37610;BME280;23457;51.966;8.230;2023-12-20T08:14:39;100589.03;;;6.38;100.00
37610;BME280;23457;51.966;8.230;2023-12-20T08:17:06;100592.91;;;6.52;100.00
37610;BME280;23457;51.966;8.230;2023-12-20T08:19:33;100577.78;;;6.36;100.00
37610;BME280;23457;51.966;8.230;2023-12-20T08:22:00;100586.00;;;6.51;100.00
37610;BME280;23457;51.966;8.230;2023-12-20T08:24:27;100586.88;;;6.52;100.00
37610;BME280;23457;51.966;8.230;2023-12-20T08:26:54;100587.66;;;6.49;100.00
37610;BME280;23457;51.966;8.230;2023-12-20T08:29:20;100579.78;;;6.44;100.00
37610;BME280;23457;51.966;8.230;2023-12-20T08:31:52;100590.44;;;6.55;100.00
37610;BME280;23457;51.966;8.230;2023-12-20T08:34:19;100585.91;;;6.48;100.00
37610;BME280;23457;51.966;8.230;2023-12-20T08:36:45;100582.63;;;6.54;100.00
37610;BME280;23457;51.966;8.230;2023-12-20T08:39:12;100575.88;;;6.59;100.00
37610;BME280;23457;51.966;8.230;2023-12-20T08:41:39;100576.13;;;6.66;100.00
37610;BME280;23457;51.966;8.230;2023-12-20T08:44:06;100584.50;;;6.59;100.00
37610;BME280;23457;51.966;8.230;2023-12-20T08:46:32;100579.28;;;6.56;100.00
37610;BME280;23457;51.966;8.230;2023-12-20T08:48:59;100570.25;;;6.42;100.00
37610;BME280;23457;51.966;8.230;2023-12-20T08:51:27;100567.97;;;6.53;100.00
37610;BME280;23457;51.966;8.230;2023-12-20T08:53:54;100568.19;;;6.60;100.00
37610;BME280;23457;51.966;8.230;2023-12-20T08:56:21;100558.53;;;6.53;100.00
37610;BME280;23457;51.966;8.230;2023-12-20T08:58:47;100561.75;;;6.46;100.00
37610;BME280;23457;51.966;8.230;2023-12-20T09:01:15;100563.84;;;6.59;100.00
37610;BME280;23457;51.966;8.230;2023-12-20T09:03:42;100562.81;;;6.53;100.00
37610;BME280;23457;51.966;8.230;2023-12-20T09:06:10;100558.69;;;6.59;100.00
37610;BME280;23457;51.966;8.230;2023-12-20T09:08:37;100546.59;;;6.57;100.00
37610;BME280;23457;51.966;8.230;2023-12-20T09:11:03;100555.22;;;6.57;100.00
37610;BME280;23457;51.966;8.230;2023-12-20T09:13:30;100529.78;;;6.71;100.00
37610;BME280;23457;51.966;8.230;2023-12-20T09:15:58;100533.63;;;6.55;100.00
37610;BME280;23457;51.966;8.230;2023-12-20T09:18:26;100540.13;;;6.72;100.00
37610;BME280;23457;51.966;8.230;2023-12-20T09:20:52;100543.75;;;6.77;100.00
37610;BME280;23457;51.966;8.230;2023-12-20T09:23:19;100533.41;;;6.77;100.00
37610;BME280;23457;51.966;8.230;2023-12-20T09:25:46;100525.16;;;6.91;100.00
37610;BME280;23457;51.966;8.230;2023-12-20T09:28:13;100539.78;;;6.90;100.00
37610;BME280;23457;51.966;8.230;2023-12-20T09:30:40;100523.75;;;6.72;100.00
37610;BME280;23457;51.966;8.230;2023-12-20T09:33:07;100511.00;;;6.76;100.00
37610;BME280;23457;51.966;8.230;2023-12-20T09:35:35;100516.00;;;6.70;100.00
37610;BME280;23457;51.966;8.230;2023-12-20T09:38:02;100510.75;;;6.67;100.00
37610;BME280;23457;51.966;8.230;2023-12-20T09:40:29;100499.53;;;6.67;100.00
37610;BME280;23457;51.966;8.230;2023-12-20T09:43:03;100495.25;;;6.67;100.00
37610;BME280;23457;51.966;8.230;2023-12-20T09:45:31;100505.22;;;6.55;100.00
37610;BME280;23457;51.966;8.230;2023-12-20T09:47:58;100501.38;;;6.71;100.00
37610;BME280;23457;51.966;8.230;2023-12-20T09:50:25;100501.41;;;6.72;100.00
37610;BME280;23457;51.966;8.230;2023-12-20T09:52:53;100509.09;;;6.69;100.00
37610;BME280;23457;51.966;8.230;2023-12-20T09:55:21;100515.66;;;6.58;100.00
37610;BME280;23457;51.966;8.230;2023-12-20T09:57:49;100514.25;;;6.69;100.00
37610;BME280;23457;51.966;8.230;2023-12-20T10:00:16;100525.97;;;6.58;100.00
37610;BME280;23457;51.966;8.230;2023-12-20T10:02:59;100515.63;;;6.88;100.00
37610;BME280;23457;51.966;8.230;2023-12-20T10:05:35;100520.69;;;6.85;100.00
37610;BME280;23457;51.966;8.230;2023-12-20T10:08:03;100524.63;;;6.72;100.00
37610;BME280;23457;51.966;8.230;2023-12-20T10:10:30;100520.00;;;6.91;100.00
37610;BME280;23457;51.966;8.230;2023-12-20T10:13:11;100517.19;;;6.81;100.00
37610;BME280;23457;51.966;8.230;2023-12-20T10:15:39;100507.03;;;6.89;100.00
37610;BME280;23457;51.966;8.230;2023-12-20T10:18:08;100511.56;;;6.98;100.00
37610;BME280;23457;51.966;8.230;2023-12-20T10:20:35;100525.03;;;7.17;100.00
37610;BME280;23457;51.966;8.230;2023-12-20T10:23:02;100510.19;;;7.10;100.00
37610;BME280;23457;51.966;8.230;2023-12-20T10:25:30;100508.00;;;6.93;100.00
37610;BME280;23457;51.966;8.230;2023-12-20T10:28:12;100515.34;;;7.10;100.00
37610;BME280;23457;51.966;8.230;2023-12-20T10:30:40;100501.88;;;6.89;100.00
37610;BME280;23457;51.966;8.230;2023-12-20T10:33:07;100489.84;;;6.90;100.00
37610;BME280;23457;51.966;8.230;2023-12-20T10:35:36;100489.00;;;6.91;100.00
37610;BME280;23457;51.966;8.230;2023-12-20T10:38:04;100483.91;;;6.94;100.00
37610;BME280;23457;51.966;8.230;2023-12-20T10:40:34;100485.06;;;7.05;100.00
37610;BME280;23457;51.966;8.230;2023-12-20T10:43:03;100491.16;;;7.07;100.00
37610;BME280;23457;51.966;8.230;2023-12-20T10:45:31;100500.94;;;7.18;100.00
37610;BME280;23457;51.966;8.230;2023-12-20T10:47:58;100500.34;;;6.96;100.00
37610;BME280;23457;51.966;8.230;2023-12-20T10:50:28;100480.81;;;7.07;100.00
37610;BME280;23457;51.966;8.230;2023-12-20T10:52:57;100501.19;;;6.95;100.00
37610;BME280;23457;51.966;8.230;2023-12-20T10:55:25;100495.47;;;7.06;100.00
37610;BME280;23457;51.966;8.230;2023-12-20T10:57:54;100485.00;;;7.02;100.00
37610;BME280;23457;51.966;8.230;2023-12-20T11:00:25;100484.06;;;7.00;100.00
37610;BME280;23457;51.966;8.230;2023-12-20T11:02:53;100480.66;;;7.01;100.00
37610;BME280;23457;51.966;8.230;2023-12-20T11:05:30;100481.50;;;7.00;100.00
37610;BME280;23457;51.966;8.230;2023-12-20T11:08:02;100481.19;;;7.22;100.00
37610;BME280;23457;51.966;8.230;2023-12-20T11:10:55;100478.88;;;7.31;100.00
37610;BME280;23457;51.966;8.230;2023-12-20T11:15:56;100483.72;;;7.19;100.00
37610;BME280;23457;51.966;8.230;2023-12-20T11:18:30;100475.84;;;7.14;100.00
37610;BME280;23457;51.966;8.230;2023-12-20T11:21:01;100471.28;;;7.39;100.00
37610;BME280;23457;51.966;8.230;2023-12-20T11:23:30;100475.31;;;7.28;100.00
37610;BME280;23457;51.966;8.230;2023-12-20T11:26:01;100473.78;;;7.34;100.00
37610;BME280;23457;51.966;8.230;2023-12-20T11:28:28;100463.38;;;7.31;100.00
37610;BME280;23457;51.966;8.230;2023-12-20T11:30:57;100466.81;;;7.32;100.00
37610;BME280;23457;51.966;8.230;2023-12-20T11:33:36;100454.28;;;7.47;100.00
37610;BME280;23457;51.966;8.230;2023-12-20T11:36:03;100452.63;;;7.50;100.00
37610;BME280;23457;51.966;8.230;2023-12-20T11:38:36;100455.16;;;7.49;100.00
37610;BME280;23457;51.966;8.230;2023-12-20T11:41:07;100446.59;;;7.87;100.00
37610;BME280;23457;51.966;8.230;2023-12-20T11:43:37;100443.34;;;7.96;100.00
37610;BME280;23457;51.966;8.230;2023-12-20T11:46:09;100429.41;;;7.91;100.00
37610;BME280;23457;51.966;8.230;2023-12-20T11:48:39;100441.16;;;7.77;100.00
37610;BME280;23457;51.966;8.230;2023-12-20T11:51:13;100432.81;;;7.88;100.00
37610;BME280;23457;51.966;8.230;2023-12-20T11:53:40;100428.13;;;7.71;100.00
37610;BME280;23457;51.966;8.230;2023-12-20T11:56:09;100423.81;;;7.71;100.00
37610;BME280;23457;51.966;8.230;2023-12-20T11:58:36;100417.28;;;7.88;100.00
37610;BME280;23457;51.966;8.230;2023-12-20T12:01:04;100427.56;;;7.84;100.00
37610;BME280;23457;51.966;8.230;2023-12-20T12:03:34;100426.59;;;7.80;100.00
37610;BME280;23457;51.966;8.230;2023-12-20T12:06:01;100422.97;;;7.72;100.00
37610;BME280;23457;51.966;8.230;2023-12-20T12:08:31;100427.03;;;8.00;100.00
37610;BME280;23457;51.966;8.230;2023-12-20T12:10:58;100423.13;;;7.80;100.00
37610;BME280;23457;51.966;8.230;2023-12-20T12:13:25;100423.13;;;7.80;100.00
37610;BME280;23457;51.966;8.230;2023-12-20T12:15:54;100420.13;;;7.62;100.00
37610;BME280;23457;51.966;8.230;2023-12-20T12:18:21;100420.13;;;7.62;100.00
37610;BME280;23457;51.966;8.230;2023-12-20T12:20:48;100417.06;;;7.78;100.00
37610;BME280;23457;51.966;8.230;2023-12-20T12:23:23;100414.91;;;7.60;100.00
37610;BME280;23457;51.966;8.230;2023-12-20T12:25:51;100413.19;;;7.59;100.00
37610;BME280;23457;51.966;8.230;2023-12-20T12:28:17;100408.22;;;7.68;100.00
37610;BME280;23457;51.966;8.230;2023-12-20T12:30:57;100397.75;;;7.64;100.00
37610;BME280;23457;51.966;8.230;2023-12-20T12:33:27;100409.56;;;7.52;100.00
37610;BME280;23457;51.966;8.230;2023-12-20T12:35:54;100410.94;;;7.74;100.00
37610;BME280;23457;51.966;8.230;2023-12-20T12:38:22;100397.88;;;7.68;100.00
37610;BME280;23457;51.966;8.230;2023-12-20T12:40:49;100398.94;;;7.78;100.00
37610;BME280;23457;51.966;8.230;2023-12-20T12:43:16;100394.44;;;7.69;100.00
37610;BME280;23457;51.966;8.230;2023-12-20T12:45:43;100389.91;;;7.59;100.00
37610;BME280;23457;51.966;8.230;2023-12-20T12:48:10;100389.09;;;7.62;100.00
37610;BME280;23457;51.966;8.230;2023-12-20T12:50:37;100394.75;;;7.83;100.00
37610;BME280;23457;51.966;8.230;2023-12-20T12:53:04;100384.25;;;7.77;100.00
37610;BME280;23457;51.966;8.230;2023-12-20T12:55:31;100400.47;;;8.07;100.00